Pleasant Valley, Virginia
Current Conditions -  °F | °C
As of 11:15 PM on Saturday 25 Oct 2014 (Local Time) from KVBW Reporting Station
Clear Clear  
Wind Chill: 60°   Ceiling: Unl
Heat Index: 60°   Visibility: 10mi
Dew Point: 46°   Wind: 5mph
Humidity: 61%   Direction: 220°SW
Pressure: 29.79"   Gusts: NA
Location:  38.38°N, 78.9°W
Report Text: KVBW 260315Z AUTO 22004KT 10SM CLR 16/08 A2979 RMK AO2 T01560080
Loading
Personal Weather Stations






























Interactive Weather Map
Tropical Storm Tracking
New forecast layout! Learn more

10-Day Weather Forecast

Advertisements
Track Severe Weather on mobile